Time;durP1;ratioP1;P1;durP2;ratioP2;P2;SDS_P1;SDS_P2;PMS_P1;PMS_P2;Temp;Humidity;BMP_temperature;BMP_pressure;BME280_temperature;BME280_humidity;BME280_pressure;Samples;Min_cycle;Max_cycle;Signal;HPM_P1;HPM_P2
2022/10/09 00:00:02;;;;;;;1.33;0.60;;;;;;;;;;5087217;28;20060;-59
2022/10/09 00:02:28;;;;;;;1.58;0.57;;;;;;;;;;5085765;28;20024;-59
2022/10/09 00:04:54;;;;;;;0.82;0.77;;;;;;;;;;5086517;28;20486;-59
2022/10/09 00:07:20;;;;;;;2.28;0.90;;;;;;;;;;5085404;28;20027;-58
2022/10/09 00:09:47;;;;;;;0.60;0.60;;;;;;;;;;5086526;28;20147;-58
2022/10/09 00:12:14;;;;;;;1.13;0.90;;;;;;;;;;5074821;28;20050;-58
2022/10/09 00:14:40;;;;;;;0.73;0.60;;;;;;;;;;5073665;28;20036;-58
2022/10/09 00:17:06;;;;;;;1.08;0.63;;;;;;;;;;5087408;28;20032;-58
2022/10/09 00:19:32;;;;;;;2.80;1.00;;;;;;;;;;5088414;28;20484;-58
2022/10/09 00:21:58;;;;;;;1.00;0.70;;;;;;;;;;5088657;28;20031;-58
2022/10/09 00:24:24;;;;;;;0.82;0.60;;;;;;;;;;5087286;28;20036;-58
2022/10/09 00:26:50;;;;;;;1.63;0.60;;;;;;;;;;5078763;28;20058;-56
2022/10/09 00:29:16;;;;;;;0.80;0.60;;;;;;;;;;5087958;28;20036;-58
2022/10/09 00:31:42;;;;;;;1.90;0.85;;;;;;;;;;5089291;28;20028;-58
2022/10/09 00:34:09;;;;;;;1.25;0.77;;;;;;;;;;5089087;28;20491;-58
2022/10/09 00:36:35;;;;;;;1.60;0.73;;;;;;;;;;5083022;28;20492;-58
2022/10/09 00:39:01;;;;;;;1.30;0.60;;;;;;;;;;5068473;28;20028;-58
2022/10/09 00:41:28;;;;;;;1.08;0.70;;;;;;;;;;5068020;28;20040;-58
2022/10/09 00:44:01;;;;;;;0.63;0.55;;;;;;;;;;5068621;28;20028;-58
2022/10/09 00:46:44;;;;;;;1.15;0.70;;;;;;;;;;5071564;28;20024;-58
2022/10/09 00:49:30;;;;;;;0.75;0.60;;;;;;;;;;5088660;28;20072;-58
2022/10/09 00:51:58;;;;;;;1.48;0.82;;;;;;;;;;5088372;28;20032;-58
2022/10/09 00:54:26;;;;;;;0.60;0.60;;;;;;;;;;5087043;28;20066;-58
2022/10/09 00:56:52;;;;;;;1.27;0.70;;;;;;;;;;5087702;28;20125;-58
2022/10/09 00:59:19;;;;;;;1.27;0.82;;;;;;;;;;5088096;28;20032;-58
2022/10/09 01:01:45;;;;;;;1.10;0.90;;;;;;;;;;5088055;28;20043;-58
2022/10/09 01:04:11;;;;;;;0.50;0.50;;;;;;;;;;5087130;28;20028;-58
2022/10/09 01:06:38;;;;;;;0.70;0.70;;;;;;;;;;5087996;28;20046;-58
2022/10/09 01:09:06;;;;;;;0.60;0.60;;;;;;;;;;5085525;28;20051;-58
2022/10/09 01:11:55;;;;;;;1.52;0.70;;;;;;;;;;5087617;28;20028;-58
2022/10/09 01:14:21;;;;;;;0.70;0.60;;;;;;;;;;5088068;28;20661;-58
2022/10/09 01:17:05;;;;;;;0.88;0.80;;;;;;;;;;5085481;28;20060;-58
2022/10/09 01:19:40;;;;;;;0.77;0.70;;;;;;;;;;5066906;28;20056;-58
2022/10/09 01:22:06;;;;;;;0.70;0.65;;;;;;;;;;5071490;28;20028;-58
2022/10/09 01:24:45;;;;;;;0.90;0.77;;;;;;;;;;5086998;28;20503;-58
2022/10/09 01:27:11;;;;;;;0.90;0.70;;;;;;;;;;5088296;28;20092;-58
2022/10/09 01:29:41;;;;;;;0.52;0.50;;;;;;;;;;5068304;28;20144;-58
2022/10/09 01:32:08;;;;;;;0.73;0.60;;;;;;;;;;5067830;28;20034;-58
2022/10/09 01:34:35;;;;;;;0.77;0.70;;;;;;;;;;5071183;28;20452;-58
2022/10/09 01:37:02;;;;;;;0.85;0.80;;;;;;;;;;5087666;28;20077;-58
2022/10/09 01:39:29;;;;;;;0.90;0.75;;;;;;;;;;5087335;28;20024;-58
2022/10/09 01:41:56;;;;;;;1.60;0.88;;;;;;;;;;5088201;28;20554;-58
2022/10/09 01:44:24;;;;;;;1.17;0.70;;;;;;;;;;5088074;28;20492;-58
2022/10/09 01:46:50;;;;;;;0.60;0.60;;;;;;;;;;5085649;28;20020;-58
2022/10/09 01:49:19;;;;;;;0.80;0.63;;;;;;;;;;5087157;28;20260;-58
2022/10/09 01:51:55;;;;;;;1.20;0.63;;;;;;;;;;5087182;28;20056;-58
2022/10/09 01:54:44;;;;;;;1.38;0.73;;;;;;;;;;5087884;28;20514;-58
2022/10/09 01:57:12;;;;;;;1.23;0.60;;;;;;;;;;5086466;28;20082;-58
2022/10/09 01:59:41;;;;;;;1.25;0.70;;;;;;;;;;5066482;28;20411;-58
2022/10/09 02:02:08;;;;;;;2.13;0.77;;;;;;;;;;5066832;28;20025;-58
2022/10/09 02:04:36;;;;;;;1.25;0.80;;;;;;;;;;5066572;28;20024;-58
2022/10/09 02:07:03;;;;;;;1.10;0.63;;;;;;;;;;5067004;28;20024;-58
2022/10/09 02:09:29;;;;;;;0.68;0.57;;;;;;;;;;5074690;28;20024;-58
2022/10/09 02:11:57;;;;;;;1.73;0.93;;;;;;;;;;5086946;28;20571;-58
2022/10/09 02:14:23;;;;;;;1.42;0.70;;;;;;;;;;5087595;28;20036;-58
2022/10/09 02:16:56;;;;;;;1.52;0.73;;;;;;;;;;5086628;28;20028;-58
2022/10/09 02:19:24;;;;;;;2.25;0.70;;;;;;;;;;5087113;28;20406;-58
2022/10/09 02:21:59;;;;;;;1.20;0.65;;;;;;;;;;5086801;28;20062;-58
2022/10/09 02:24:25;;;;;;;0.88;0.65;;;;;;;;;;5081889;28;20056;-58
2022/10/09 02:26:56;;;;;;;0.82;0.60;;;;;;;;;;5066979;28;20031;-58
2022/10/09 02:29:22;;;;;;;0.77;0.77;;;;;;;;;;5067054;28;20024;-58
2022/10/09 02:31:48;;;;;;;1.90;0.70;;;;;;;;;;5066097;28;20033;-58
2022/10/09 02:34:16;;;;;;;0.88;0.63;;;;;;;;;;5065888;28;20040;-58
2022/10/09 02:36:42;;;;;;;0.60;0.60;;;;;;;;;;5070503;28;20020;-58
2022/10/09 02:39:09;;;;;;;0.60;0.60;;;;;;;;;;5086503;28;20067;-58
2022/10/09 02:41:35;;;;;;;0.82;0.70;;;;;;;;;;5086207;28;20034;-58
2022/10/09 02:44:03;;;;;;;1.40;0.70;;;;;;;;;;5086665;28;20073;-58
2022/10/09 02:46:29;;;;;;;1.20;0.90;;;;;;;;;;5084194;28;20089;-58
2022/10/09 02:48:55;;;;;;;1.70;0.65;;;;;;;;;;5080735;28;20029;-58
2022/10/09 02:51:21;;;;;;;0.98;0.73;;;;;;;;;;5066893;28;20506;-58
2022/10/09 02:53:47;;;;;;;0.82;0.63;;;;;;;;;;5065990;28;20503;-58
2022/10/09 02:56:13;;;;;;;0.55;0.50;;;;;;;;;;5066314;28;20450;-58
2022/10/09 02:58:39;;;;;;;0.68;0.50;;;;;;;;;;5066048;28;20434;-58
2022/10/09 03:01:06;;;;;;;1.63;0.80;;;;;;;;;;5066237;28;20031;-59
2022/10/09 03:03:32;;;;;;;1.27;0.73;;;;;;;;;;5065722;28;20028;-58
2022/10/09 03:06:08;;;;;;;1.02;0.47;;;;;;;;;;5066117;28;20500;-59
2022/10/09 03:08:34;;;;;;;1.17;0.80;;;;;;;;;;5065831;28;20025;-58
2022/10/09 03:11:00;;;;;;;1.77;0.70;;;;;;;;;;5066023;28;20029;-58
2022/10/09 03:13:27;;;;;;;0.98;0.60;;;;;;;;;;5081915;28;20580;-58
2022/10/09 03:15:53;;;;;;;1.17;0.90;;;;;;;;;;5086677;28;20056;-58
2022/10/09 03:18:19;;;;;;;0.98;0.80;;;;;;;;;;5086010;28;20028;-58
2022/10/09 03:20:45;;;;;;;1.08;0.70;;;;;;;;;;5085172;28;20036;-58
2022/10/09 03:23:12;;;;;;;1.33;0.75;;;;;;;;;;5086272;28;20070;-58
2022/10/09 03:25:38;;;;;;;1.25;0.70;;;;;;;;;;5085015;28;20064;-59
2022/10/09 03:28:04;;;;;;;1.75;0.85;;;;;;;;;;5085268;28;20035;-59
2022/10/09 03:30:30;;;;;;;0.93;0.68;;;;;;;;;;5084438;28;20532;-58
2022/10/09 03:32:56;;;;;;;1.60;0.82;;;;;;;;;;5085724;28;20425;-59
2022/10/09 03:35:22;;;;;;;1.42;0.70;;;;;;;;;;5085633;28;20483;-58
2022/10/09 03:37:48;;;;;;;1.33;0.70;;;;;;;;;;5083461;28;20063;-58
2022/10/09 03:40:14;;;;;;;1.23;0.80;;;;;;;;;;5085700;28;20035;-58
2022/10/09 03:42:40;;;;;;;2.00;0.77;;;;;;;;;;5085674;28;20030;-59
2022/10/09 03:45:06;;;;;;;0.60;0.60;;;;;;;;;;5085243;28;20055;-58
2022/10/09 03:47:32;;;;;;;1.38;0.77;;;;;;;;;;5088862;28;20398;-59
2022/10/09 03:49:58;;;;;;;1.05;0.80;;;;;;;;;;5075040;28;20132;-58
2022/10/09 03:52:24;;;;;;;0.88;0.70;;;;;;;;;;5069928;28;20391;-58
2022/10/09 03:54:50;;;;;;;1.27;0.85;;;;;;;;;;5069374;28;20434;-58
2022/10/09 03:57:16;;;;;;;0.70;0.70;;;;;;;;;;5069337;28;20083;-58
2022/10/09 03:59:42;;;;;;;1.83;0.90;;;;;;;;;;5068857;28;20028;-58
2022/10/09 04:02:08;;;;;;;1.02;0.80;;;;;;;;;;5082041;28;20779;-58
2022/10/09 04:04:34;;;;;;;0.90;0.70;;;;;;;;;;5089240;28;20453;-58
2022/10/09 04:07:00;;;;;;;1.10;0.73;;;;;;;;;;5089276;28;20024;-58
2022/10/09 04:09:27;;;;;;;1.58;1.02;;;;;;;;;;5088944;28;20431;-57
2022/10/09 04:11:53;;;;;;;1.25;1.10;;;;;;;;;;5087363;28;20058;-57
2022/10/09 04:14:19;;;;;;;0.80;0.80;;;;;;;;;;5088980;28;20543;-58
2022/10/09 04:16:45;;;;;;;0.82;0.80;;;;;;;;;;5088165;28;20040;-57
2022/10/09 04:19:11;;;;;;;1.60;1.10;;;;;;;;;;5088935;28;20423;-57
2022/10/09 04:21:37;;;;;;;0.95;0.90;;;;;;;;;;5087777;28;20036;-57
2022/10/09 04:24:07;;;;;;;1.20;1.08;;;;;;;;;;5088442;28;20031;-58
2022/10/09 04:26:33;;;;;;;1.00;0.90;;;;;;;;;;5068371;28;20154;-58
2022/10/09 04:28:59;;;;;;;1.77;1.13;;;;;;;;;;5068499;28;20036;-58
2022/10/09 04:31:25;;;;;;;1.00;0.93;;;;;;;;;;5068693;28;20037;-58
2022/10/09 04:33:54;;;;;;;3.13;1.20;;;;;;;;;;5069325;28;20029;-58
2022/10/09 04:36:20;;;;;;;1.42;0.90;;;;;;;;;;5068668;28;20020;-58
2022/10/09 04:38:46;;;;;;;2.20;1.27;;;;;;;;;;5068331;28;20051;-58
2022/10/09 04:41:12;;;;;;;1.60;0.95;;;;;;;;;;5067997;28;20411;-58
2022/10/09 04:43:38;;;;;;;1.40;1.30;;;;;;;;;;5068057;28;20025;-58
2022/10/09 04:46:05;;;;;;;1.35;1.10;;;;;;;;;;5080106;28;20046;-58
2022/10/09 04:48:31;;;;;;;1.58;1.10;;;;;;;;;;5087634;28;20043;-58
2022/10/09 04:50:57;;;;;;;1.20;1.10;;;;;;;;;;5068243;28;20080;-58
2022/10/09 04:53:23;;;;;;;2.05;1.42;;;;;;;;;;5068877;28;20404;-58
2022/10/09 04:55:50;;;;;;;1.98;1.23;;;;;;;;;;5067888;28;20036;-58
2022/10/09 04:58:16;;;;;;;1.63;1.27;;;;;;;;;;5066034;28;20693;-57
2022/10/09 05:00:44;;;;;;;2.30;1.40;;;;;;;;;;5067605;28;20070;-59
2022/10/09 05:03:10;;;;;;;2.22;1.30;;;;;;;;;;5067958;28;20031;-59
2022/10/09 05:05:36;;;;;;;1.98;1.33;;;;;;;;;;5067808;28;20029;-58
2022/10/09 05:08:03;;;;;;;1.73;1.33;;;;;;;;;;5069531;28;20042;-58
2022/10/09 05:10:31;;;;;;;1.60;1.30;;;;;;;;;;5086302;28;20035;-58
2022/10/09 05:12:57;;;;;;;2.25;1.38;;;;;;;;;;5086979;28;20028;-58
2022/10/09 05:15:23;;;;;;;2.28;1.63;;;;;;;;;;5068495;28;20442;-58
2022/10/09 05:17:49;;;;;;;1.25;1.10;;;;;;;;;;5067434;28;20396;-58
2022/10/09 05:20:15;;;;;;;1.73;1.35;;;;;;;;;;5067414;28;20039;-58
2022/10/09 05:22:43;;;;;;;1.95;1.52;;;;;;;;;;5071563;28;20776;-58
2022/10/09 05:25:09;;;;;;;1.65;1.40;;;;;;;;;;5083622;28;20032;-58
2022/10/09 05:27:35;;;;;;;1.83;1.48;;;;;;;;;;5070271;28;20024;-58
2022/10/09 05:30:01;;;;;;;2.45;1.55;;;;;;;;;;5082191;28;20020;-58
2022/10/09 05:32:27;;;;;;;2.97;1.45;;;;;;;;;;5072893;28;20555;-58
2022/10/09 05:34:53;;;;;;;1.83;1.20;;;;;;;;;;5086374;28;20052;-58
2022/10/09 05:37:19;;;;;;;2.03;1.17;;;;;;;;;;5077716;28;20024;-58
2022/10/09 05:39:45;;;;;;;2.47;1.35;;;;;;;;;;5066908;28;20044;-59
2022/10/09 05:42:12;;;;;;;1.40;1.30;;;;;;;;;;5087102;28;20518;-58
2022/10/09 05:44:38;;;;;;;1.85;1.17;;;;;;;;;;5074016;28;20035;-58
2022/10/09 05:47:05;;;;;;;2.80;1.50;;;;;;;;;;5085269;28;20047;-58
2022/10/09 05:49:31;;;;;;;1.83;1.10;;;;;;;;;;5076573;28;20431;-58
2022/10/09 05:51:56;;;;;;;1.77;1.48;;;;;;;;;;5089115;28;20032;-58
2022/10/09 05:54:23;;;;;;;2.15;1.60;;;;;;;;;;5076623;28;20062;-58
2022/10/09 05:56:48;;;;;;;2.15;1.45;;;;;;;;;;5086962;28;20016;-58
2022/10/09 05:59:18;;;;;;;1.60;1.50;;;;;;;;;;5087237;28;20028;-59
2022/10/09 06:01:45;;;;;;;2.33;1.88;;;;;;;;;;5087163;28;20150;-58
2022/10/09 06:04:12;;;;;;;3.45;1.65;;;;;;;;;;5087406;28;20150;-58
2022/10/09 06:06:39;;;;;;;1.48;1.30;;;;;;;;;;5085630;28;20028;-58
2022/10/09 06:09:06;;;;;;;1.90;1.40;;;;;;;;;;5086099;28;20024;-58
2022/10/09 06:11:33;;;;;;;2.15;1.25;;;;;;;;;;5081452;28;20021;-58
2022/10/09 06:14:00;;;;;;;2.00;1.10;;;;;;;;;;5066950;28;20043;-58
2022/10/09 06:16:28;;;;;;;1.80;1.48;;;;;;;;;;5066676;28;20024;-58
2022/10/09 06:18:54;;;;;;;2.78;1.58;;;;;;;;;;5082537;28;20036;-58
2022/10/09 06:21:21;;;;;;;2.03;1.40;;;;;;;;;;5086479;28;20043;-58
2022/10/09 06:23:51;;;;;;;2.83;1.83;;;;;;;;;;5086843;28;20023;-58
2022/10/09 06:26:18;;;;;;;2.83;1.70;;;;;;;;;;5068270;28;20055;-58
2022/10/09 06:28:44;;;;;;;1.77;1.15;;;;;;;;;;5067504;28;20035;-58
2022/10/09 06:31:15;;;;;;;2.63;1.50;;;;;;;;;;5074374;28;20078;-58
2022/10/09 06:33:41;;;;;;;1.35;1.15;;;;;;;;;;5067341;28;20051;-58
2022/10/09 06:36:08;;;;;;;2.50;1.42;;;;;;;;;;5073005;28;20636;-58
2022/10/09 06:38:35;;;;;;;2.00;1.42;;;;;;;;;;5081588;28;20055;-58
2022/10/09 06:41:20;;;;;;;1.90;1.35;;;;;;;;;;5073114;28;20043;-58
2022/10/09 06:43:50;;;;;;;2.45;1.02;;;;;;;;;;5079243;28;20111;-58
2022/10/09 06:46:16;;;;;;;1.77;1.20;;;;;;;;;;5083033;28;20685;-58
2022/10/09 06:48:42;;;;;;;3.15;1.20;;;;;;;;;;5076843;28;20020;-57
2022/10/09 06:51:13;;;;;;;2.47;1.30;;;;;;;;;;5069109;28;20032;-58
2022/10/09 06:53:41;;;;;;;1.48;1.38;;;;;;;;;;5084081;28;20028;-57
2022/10/09 06:56:09;;;;;;;1.25;1.15;;;;;;;;;;5073186;28;20094;-58
2022/10/09 06:58:35;;;;;;;2.30;1.20;;;;;;;;;;5085414;28;20074;-58
2022/10/09 07:01:12;;;;;;;2.78;1.40;;;;;;;;;;5087195;28;20516;-58
2022/10/09 07:03:39;;;;;;;2.15;1.00;;;;;;;;;;5084222;28;20539;-58
2022/10/09 07:06:06;;;;;;;2.05;1.20;;;;;;;;;;5084842;28;20526;-58
2022/10/09 07:08:33;;;;;;;1.58;1.08;;;;;;;;;;5081606;28;20016;-58
2022/10/09 07:10:59;;;;;;;1.60;1.08;;;;;;;;;;5086916;28;20488;-58
2022/10/09 07:13:25;;;;;;;3.08;1.27;;;;;;;;;;5086267;28;20103;-58
2022/10/09 07:15:51;;;;;;;2.50;1.05;;;;;;;;;;5086260;28;20566;-58
2022/10/09 07:18:17;;;;;;;2.50;1.20;;;;;;;;;;5086666;28;20078;-58
2022/10/09 07:20:43;;;;;;;3.17;1.15;;;;;;;;;;5087128;28;20028;-58
2022/10/09 07:23:09;;;;;;;1.10;1.00;;;;;;;;;;5088913;28;20044;-58
2022/10/09 07:25:38;;;;;;;2.35;1.20;;;;;;;;;;5083602;28;20032;-58
2022/10/09 07:28:04;;;;;;;2.72;1.40;;;;;;;;;;5087435;28;20548;-58
2022/10/09 07:30:30;;;;;;;2.90;1.30;;;;;;;;;;5080312;28;20540;-58
2022/10/09 07:32:56;;;;;;;1.95;1.05;;;;;;;;;;5087745;28;20043;-58
2022/10/09 07:35:22;;;;;;;2.92;1.13;;;;;;;;;;5091122;28;20499;-58
2022/10/09 07:37:48;;;;;;;2.20;1.17;;;;;;;;;;5089128;28;20783;-58
2022/10/09 07:40:14;;;;;;;2.22;1.30;;;;;;;;;;5090535;28;20406;-58
2022/10/09 07:42:40;;;;;;;1.48;1.30;;;;;;;;;;5083103;28;20028;-58
2022/10/09 07:45:06;;;;;;;2.25;1.15;;;;;;;;;;5089372;28;20391;-58
2022/10/09 07:47:32;;;;;;;1.52;1.13;;;;;;;;;;5088497;28;20031;-58
2022/10/09 07:49:58;;;;;;;2.70;1.30;;;;;;;;;;5089588;28;20478;-58
2022/10/09 07:52:24;;;;;;;2.70;1.08;;;;;;;;;;5089535;28;20590;-58
2022/10/09 07:54:50;;;;;;;1.38;1.10;;;;;;;;;;5090139;28;20039;-58
2022/10/09 07:57:16;;;;;;;3.38;1.40;;;;;;;;;;5088060;28;20055;-58
2022/10/09 07:59:43;;;;;;;1.80;1.10;;;;;;;;;;5089492;28;20047;-58
2022/10/09 08:02:10;;;;;;;1.83;1.13;;;;;;;;;;5088011;28;20525;-58
2022/10/09 08:04:36;;;;;;;2.78;1.10;;;;;;;;;;5074927;28;20048;-58
2022/10/09 08:07:02;;;;;;;1.40;1.23;;;;;;;;;;5078505;28;20073;-58
2022/10/09 08:09:28;;;;;;;1.20;0.98;;;;;;;;;;5079736;28;20183;-58
2022/10/09 08:11:54;;;;;;;2.33;1.58;;;;;;;;;;5083046;28;20532;-58
2022/10/09 08:14:20;;;;;;;1.20;1.05;;;;;;;;;;5087680;28;23272;-58
2022/10/09 08:16:47;;;;;;;2.40;1.20;;;;;;;;;;5088953;28;20070;-59
2022/10/09 08:19:13;;;;;;;1.30;0.98;;;;;;;;;;5089261;28;20028;-58
2022/10/09 08:21:39;;;;;;;1.92;1.00;;;;;;;;;;5088918;28;20376;-58
2022/10/09 08:24:05;;;;;;;1.45;1.05;;;;;;;;;;5088247;28;20114;-58
2022/10/09 08:26:31;;;;;;;1.63;1.20;;;;;;;;;;5077068;28;20032;-59
2022/10/09 08:29:01;;;;;;;1.73;1.20;;;;;;;;;;5088806;28;20028;-59
2022/10/09 08:31:28;;;;;;;2.60;1.05;;;;;;;;;;5087887;28;20060;-58
2022/10/09 08:33:57;;;;;;;2.35;1.20;;;;;;;;;;5087793;28;20110;-58
2022/10/09 08:36:23;;;;;;;1.30;0.93;;;;;;;;;;5090033;28;20035;-58
2022/10/09 08:38:49;;;;;;;1.77;0.88;;;;;;;;;;5086974;28;20035;-58
2022/10/09 08:41:22;;;;;;;1.90;1.00;;;;;;;;;;5089009;28;20074;-58
2022/10/09 08:43:49;;;;;;;1.85;1.08;;;;;;;;;;5087974;28;20034;-58
2022/10/09 08:46:22;;;;;;;1.40;1.02;;;;;;;;;;5089368;28;20111;-58
2022/10/09 08:48:48;;;;;;;0.85;0.80;;;;;;;;;;5083569;28;20478;-58
2022/10/09 08:51:26;;;;;;;2.22;1.35;;;;;;;;;;5083906;28;21440;-58
2022/10/09 08:53:58;;;;;;;1.60;1.10;;;;;;;;;;5088646;28;20031;-59
2022/10/09 08:56:26;;;;;;;1.30;0.90;;;;;;;;;;5089667;28;20028;-59
2022/10/09 08:58:52;;;;;;;2.13;1.08;;;;;;;;;;5084432;28;20480;-59
2022/10/09 09:01:21;;;;;;;1.63;1.30;;;;;;;;;;5071954;28;20038;-58
2022/10/09 09:04:15;;;;;;;2.00;1.10;;;;;;;;;;5083332;28;20361;-58
2022/10/09 09:06:55;;;;;;;1.10;1.00;;;;;;;;;;5082257;28;20387;-59
2022/10/09 09:09:36;;;;;;;2.08;1.23;;;;;;;;;;5088300;28;20032;-59
2022/10/09 09:12:18;;;;;;;1.83;1.30;;;;;;;;;;5086755;28;20120;-58
2022/10/09 09:14:57;;;;;;;2.55;1.40;;;;;;;;;;5075247;28;20028;-59
2022/10/09 09:17:26;;;;;;;2.20;1.20;;;;;;;;;;5080503;28;20055;-58
2022/10/09 09:19:55;;;;;;;3.13;1.40;;;;;;;;;;5086016;28;20103;-58
2022/10/09 09:22:23;;;;;;;1.60;1.23;;;;;;;;;;5088429;28;20020;-58
2022/10/09 09:24:56;;;;;;;2.35;1.50;;;;;;;;;;5085841;28;20023;-58
2022/10/09 09:27:31;;;;;;;1.83;1.40;;;;;;;;;;5080009;28;20052;-58
2022/10/09 09:29:57;;;;;;;;;;;;;;;;;;5086517;28;20278;-58
2022/10/09 09:32:25;;;;;;;2.05;1.30;;;;;;;;;;5087778;28;19973;-59
2022/10/09 09:34:53;;;;;;;1.40;1.30;;;;;;;;;;5088305;28;20039;-58
2022/10/09 09:37:19;;;;;;;1.63;1.20;;;;;;;;;;5087581;28;20024;-58
2022/10/09 09:39:45;;;;;;;1.25;1.10;;;;;;;;;;5086975;28;20166;-58
2022/10/09 09:42:18;;;;;;;2.38;1.58;;;;;;;;;;5086669;28;20028;-58
2022/10/09 09:44:48;;;;;;;1.98;1.30;;;;;;;;;;5085922;28;20115;-58
2022/10/09 09:47:26;;;;;;;1.08;0.90;;;;;;;;;;5083063;28;20028;-59
2022/10/09 09:49:53;;;;;;;1.98;1.20;;;;;;;;;;5075924;28;20484;-58
2022/10/09 09:52:19;;;;;;;1.58;1.23;;;;;;;;;;5080572;28;20038;-59
2022/10/09 09:54:48;;;;;;;3.00;1.40;;;;;;;;;;5086149;28;20043;-58
2022/10/09 09:57:27;;;;;;;1.42;1.08;;;;;;;;;;5086854;28;20095;-58
2022/10/09 09:59:53;;;;;;;1.35;1.15;;;;;;;;;;5085520;28;20028;-58
2022/10/09 10:02:20;;;;;;;1.20;1.10;;;;;;;;;;5082653;28;20699;-59
2022/10/09 10:04:50;;;;;;;2.72;1.13;;;;;;;;;;5085842;28;20063;-58
2022/10/09 10:07:36;;;;;;;1.27;1.08;;;;;;;;;;5086783;28;20020;-58
2022/10/09 10:10:05;;;;;;;1.52;1.17;;;;;;;;;;5086707;28;20035;-58
2022/10/09 10:12:31;;;;;;;1.90;1.10;;;;;;;;;;5085062;28;20055;-58
2022/10/09 10:14:57;;;;;;;2.50;1.15;;;;;;;;;;5087151;28;20020;-58
2022/10/09 10:17:28;;;;;;;1.27;1.00;;;;;;;;;;5081520;28;20052;-58
2022/10/09 10:19:54;;;;;;;1.48;1.02;;;;;;;;;;5086613;28;20034;-59
2022/10/09 10:22:24;;;;;;;0.70;0.70;;;;;;;;;;5086544;28;20074;-59
2022/10/09 10:24:52;;;;;;;1.27;0.90;;;;;;;;;;5082668;28;20025;-59
2022/10/09 10:27:18;;;;;;;1.17;0.85;;;;;;;;;;5076160;28;20382;-59
2022/10/09 10:29:47;;;;;;;0.82;0.77;;;;;;;;;;5077327;28;20140;-59
2022/10/09 10:32:31;;;;;;;1.63;0.95;;;;;;;;;;5075878;28;20020;-59
2022/10/09 10:35:02;;;;;;;1.23;1.00;;;;;;;;;;5083507;28;20119;-60
2022/10/09 10:37:33;;;;;;;1.52;0.80;;;;;;;;;;5083019;28;20042;-59
2022/10/09 10:40:02;;;;;;;1.35;1.02;;;;;;;;;;5084685;28;20035;-59
2022/10/09 10:42:54;;;;;;;1.30;1.05;;;;;;;;;;5084548;28;20534;-59
2022/10/09 10:45:24;;;;;;;0.88;0.80;;;;;;;;;;5062430;28;20507;-59
2022/10/09 10:47:52;;;;;;;0.82;0.80;;;;;;;;;;5083673;28;20058;-59
2022/10/09 10:50:19;;;;;;;0.68;0.68;;;;;;;;;;5080478;28;20024;-59
2022/10/09 10:53:00;;;;;;;0.88;0.70;;;;;;;;;;5076027;28;20742;-59
2022/10/09 10:55:45;;;;;;;1.85;0.80;;;;;;;;;;5085763;28;20024;-59
2022/10/09 10:58:20;;;;;;;1.90;1.00;;;;;;;;;;5082203;28;20132;-59
2022/10/09 11:01:06;;;;;;;1.15;0.80;;;;;;;;;;5077218;28;20085;-59
2022/10/09 11:03:35;;;;;;;2.17;1.00;;;;;;;;;;5062253;28;20147;-59
2022/10/09 11:06:07;;;;;;;0.70;0.60;;;;;;;;;;5067333;28;20412;-59
2022/10/09 11:08:33;;;;;;;0.63;0.60;;;;;;;;;;5065712;28;20025;-59
2022/10/09 11:11:02;;;;;;;0.93;0.80;;;;;;;;;;5066045;28;20051;-59
2022/10/09 11:13:31;;;;;;;1.02;0.85;;;;;;;;;;5066578;28;20503;-59
2022/10/09 11:16:04;;;;;;;0.70;0.70;;;;;;;;;;5067301;28;20028;-59
2022/10/09 11:18:43;;;;;;;1.05;0.80;;;;;;;;;;5084080;28;20043;-59
2022/10/09 11:21:35;;;;;;;1.70;0.80;;;;;;;;;;5084853;28;20495;-59
2022/10/09 11:24:16;;;;;;;0.90;0.60;;;;;;;;;;5069657;28;20723;-59
2022/10/09 11:26:49;;;;;;;0.70;0.70;;;;;;;;;;5074394;28;20028;-59
2022/10/09 11:29:29;;;;;;;2.22;1.45;;;;;;;;;;5081607;28;20035;-60
2022/10/09 11:32:16;;;;;;;0.77;0.77;;;;;;;;;;5085346;28;20028;-60
2022/10/09 11:34:47;;;;;;;1.08;0.98;;;;;;;;;;5082659;28;20039;-60
2022/10/09 11:37:25;;;;;;;1.00;0.80;;;;;;;;;;5078026;28;20048;-59
2022/10/09 11:39:51;;;;;;;0.90;0.90;;;;;;;;;;5070957;28;20028;-60
2022/10/09 11:42:19;;;;;;;0.73;0.73;;;;;;;;;;5079474;28;20082;-59
2022/10/09 11:45:00;;;;;;;1.30;0.88;;;;;;;;;;5085000;28;20107;-59
2022/10/09 11:47:26;;;;;;;0.90;0.75;;;;;;;;;;5084547;28;20024;-60
2022/10/09 11:50:12;;;;;;;0.47;0.47;;;;;;;;;;5086036;28;20020;-59
2022/10/09 11:52:43;;;;;;;0.60;0.60;;;;;;;;;;5079651;28;20028;-60
2022/10/09 11:55:28;;;;;;;0.82;0.60;;;;;;;;;;5076827;28;20024;-60
2022/10/09 11:57:54;;;;;;;0.90;0.80;;;;;;;;;;5083242;28;20077;-59
2022/10/09 12:00:31;;;;;;;0.77;0.65;;;;;;;;;;5085873;28;20036;-60
2022/10/09 12:03:01;;;;;;;0.82;0.50;;;;;;;;;;5079776;28;20020;-59
2022/10/09 12:05:38;;;;;;;1.85;0.73;;;;;;;;;;5085636;28;20111;-60
2022/10/09 12:08:12;;;;;;;1.10;0.80;;;;;;;;;;5085022;28;20031;-59
2022/10/09 12:10:41;;;;;;;0.80;0.80;;;;;;;;;;5087480;28;20032;-59
2022/10/09 12:13:07;;;;;;;0.70;0.70;;;;;;;;;;5087938;28;20487;-59
2022/10/09 12:15:39;;;;;;;1.05;0.93;;;;;;;;;;5077233;28;20086;-59
2022/10/09 12:18:19;;;;;;;1.08;0.80;;;;;;;;;;5086796;28;20818;-59
2022/10/09 12:20:48;;;;;;;0.60;0.60;;;;;;;;;;5088785;28;20081;-59
2022/10/09 12:23:18;;;;;;;1.52;0.77;;;;;;;;;;5086879;28;20034;-60
2022/10/09 12:25:45;;;;;;;0.93;0.80;;;;;;;;;;5080741;28;20524;-59
2022/10/09 12:28:17;;;;;;;0.95;0.82;;;;;;;;;;5085963;28;20939;-60
2022/10/09 12:30:46;;;;;;;0.73;0.70;;;;;;;;;;5088600;28;20031;-59
2022/10/09 12:33:25;;;;;;;0.77;0.70;;;;;;;;;;5088396;28;20032;-59
2022/10/09 12:36:10;;;;;;;0.60;0.60;;;;;;;;;;5079611;28;20606;-60
2022/10/09 12:38:36;;;;;;;0.60;0.60;;;;;;;;;;5087812;28;20054;-60
2022/10/09 12:41:06;;;;;;;0.70;0.68;;;;;;;;;;5088221;28;20559;-60
2022/10/09 12:43:35;;;;;;;1.30;0.90;;;;;;;;;;5087637;28;20027;-60
2022/10/09 12:46:01;;;;;;;0.80;0.70;;;;;;;;;;5084982;28;20031;-60
2022/10/09 12:48:28;;;;;;;0.93;0.70;;;;;;;;;;5087592;28;20016;-60
2022/10/09 12:50:54;;;;;;;1.13;0.80;;;;;;;;;;5088136;28;20042;-60
2022/10/09 12:53:22;;;;;;;0.60;0.60;;;;;;;;;;5083331;28;20052;-60
2022/10/09 12:55:51;;;;;;;0.68;0.68;;;;;;;;;;5071590;28;20034;-59
2022/10/09 12:58:21;;;;;;;1.05;0.85;;;;;;;;;;5087688;28;20116;-60
2022/10/09 13:00:49;;;;;;;1.10;0.70;;;;;;;;;;5085920;28;20127;-60
2022/10/09 13:03:35;;;;;;;1.15;0.70;;;;;;;;;;5087139;28;20499;-60
2022/10/09 13:06:02;;;;;;;0.98;0.60;;;;;;;;;;5088146;28;20046;-60
2022/10/09 13:08:30;;;;;;;0.50;0.50;;;;;;;;;;5084747;28;20020;-60
2022/10/09 13:11:07;;;;;;;0.80;0.80;;;;;;;;;;5084433;28;20036;-60
2022/10/09 13:13:33;;;;;;;1.02;0.80;;;;;;;;;;5085743;28;20028;-60
2022/10/09 13:16:01;;;;;;;0.85;0.70;;;;;;;;;;5087760;28;20039;-60
2022/10/09 13:18:28;;;;;;;1.13;0.80;;;;;;;;;;5086781;28;20032;-60
2022/10/09 13:21:05;;;;;;;0.75;0.75;;;;;;;;;;5088358;28;20026;-59
2022/10/09 13:23:32;;;;;;;0.60;0.50;;;;;;;;;;5087272;28;20579;-59
2022/10/09 13:26:03;;;;;;;0.63;0.50;;;;;;;;;;5081225;28;20028;-59
2022/10/09 13:28:30;;;;;;;1.00;0.70;;;;;;;;;;5084576;28;20628;-59
2022/10/09 13:30:56;;;;;;;0.68;0.60;;;;;;;;;;5085286;28;20055;-60
2022/10/09 13:33:22;;;;;;;0.75;0.63;;;;;;;;;;5086554;28;20031;-59
2022/10/09 13:35:48;;;;;;;0.70;0.70;;;;;;;;;;5085963;28;20028;-59
2022/10/09 13:38:16;;;;;;;1.30;0.60;;;;;;;;;;5085207;28;20635;-59
2022/10/09 13:40:43;;;;;;;2.15;0.50;;;;;;;;;;5084643;28;20582;-59
2022/10/09 13:43:17;;;;;;;0.68;0.68;;;;;;;;;;5082766;28;20020;-59
2022/10/09 13:45:44;;;;;;;1.45;0.80;;;;;;;;;;5085970;28;20035;-59
2022/10/09 13:48:11;;;;;;;1.17;0.82;;;;;;;;;;5084868;28;20028;-59
2022/10/09 13:50:37;;;;;;;0.52;0.52;;;;;;;;;;5085998;28;20032;-59
2022/10/09 13:53:03;;;;;;;0.60;0.60;;;;;;;;;;5083529;28;20097;-59
2022/10/09 13:55:29;;;;;;;0.65;0.60;;;;;;;;;;5084529;28;20047;-59
2022/10/09 13:57:56;;;;;;;0.93;0.80;;;;;;;;;;5084424;28;20032;-59
2022/10/09 14:00:22;;;;;;;0.85;0.70;;;;;;;;;;5085108;28;20060;-59
2022/10/09 14:02:48;;;;;;;1.40;0.73;;;;;;;;;;5081555;28;20136;-59
2022/10/09 14:05:14;;;;;;;1.05;0.93;;;;;;;;;;5082090;28;20112;-60
2022/10/09 14:07:40;;;;;;;0.65;0.65;;;;;;;;;;5082482;28;20099;-60
2022/10/09 14:10:06;;;;;;;0.95;0.70;;;;;;;;;;5085796;28;20024;-60
2022/10/09 14:12:32;;;;;;;0.85;0.70;;;;;;;;;;5082552;28;20039;-60
2022/10/09 14:14:59;;;;;;;0.70;0.70;;;;;;;;;;5086206;28;20515;-60
2022/10/09 14:17:25;;;;;;;0.80;0.80;;;;;;;;;;5082537;28;20058;-60
2022/10/09 14:19:52;;;;;;;0.80;0.70;;;;;;;;;;5086559;28;20023;-60
2022/10/09 14:22:18;;;;;;;0.93;0.70;;;;;;;;;;5083217;28;20039;-60
2022/10/09 14:24:44;;;;;;;0.60;0.60;;;;;;;;;;5085338;28;20395;-50
2022/10/09 14:27:10;;;;;;;1.13;0.70;;;;;;;;;;5083549;28;20107;-51
2022/10/09 14:29:37;;;;;;;2.05;0.95;;;;;;;;;;5083842;28;20483;-53
2022/10/09 14:32:03;;;;;;;0.93;0.70;;;;;;;;;;5082240;28;20541;-50
2022/10/09 14:34:29;;;;;;;0.80;0.73;;;;;;;;;;5085278;28;20043;-50
2022/10/09 14:36:55;;;;;;;1.10;0.70;;;;;;;;;;5083432;28;20540;-51
2022/10/09 14:39:21;;;;;;;1.20;0.82;;;;;;;;;;5065624;28;20028;-52
2022/10/09 14:41:47;;;;;;;1.13;0.90;;;;;;;;;;5079708;28;20072;-51
2022/10/09 14:44:14;;;;;;;0.70;0.70;;;;;;;;;;5085034;28;20106;-50
2022/10/09 14:46:40;;;;;;;0.98;0.77;;;;;;;;;;5082684;28;20024;-51
2022/10/09 14:49:08;;;;;;;0.70;0.70;;;;;;;;;;5069261;28;20037;-50
2022/10/09 14:51:35;;;;;;;0.80;0.80;;;;;;;;;;5078499;28;20515;-53